sensor_id;sensor_type;location;lat;lon;timestamp;temperature;humidity
52181;DHT22;38158;53.338;6.514;2022-08-24T00:01:13;19.20;99.90
52181;DHT22;38158;53.338;6.514;2022-08-24T00:03:39;19.20;99.90
52181;DHT22;38158;53.338;6.514;2022-08-24T00:06:07;19.20;99.90
52181;DHT22;38158;53.338;6.514;2022-08-24T00:08:33;19.20;99.90
52181;DHT22;38158;53.338;6.514;2022-08-24T00:10:59;19.10;99.90
52181;DHT22;38158;53.338;6.514;2022-08-24T00:13:25;19.10;99.90
52181;DHT22;38158;53.338;6.514;2022-08-24T00:15:51;19.10;99.90
52181;DHT22;38158;53.338;6.514;2022-08-24T00:18:17;19.10;99.90
52181;DHT22;38158;53.338;6.514;2022-08-24T00:20:44;19.10;99.90
52181;DHT22;38158;53.338;6.514;2022-08-24T00:23:10;19.10;99.90
52181;DHT22;38158;53.338;6.514;2022-08-24T00:25:35;19.00;99.90
52181;DHT22;38158;53.338;6.514;2022-08-24T00:28:02;19.10;99.90
52181;DHT22;38158;53.338;6.514;2022-08-24T00:30:28;19.00;99.90
52181;DHT22;38158;53.338;6.514;2022-08-24T00:32:54;19.00;99.90
52181;DHT22;38158;53.338;6.514;2022-08-24T00:35:20;19.00;99.90
52181;DHT22;38158;53.338;6.514;2022-08-24T00:37:48;19.00;99.90
52181;DHT22;38158;53.338;6.514;2022-08-24T00:40:26;19.00;99.90
52181;DHT22;38158;53.338;6.514;2022-08-24T00:42:53;19.00;99.90
52181;DHT22;38158;53.338;6.514;2022-08-24T00:45:19;18.90;99.90
52181;DHT22;38158;53.338;6.514;2022-08-24T00:47:49;18.90;99.90
52181;DHT22;38158;53.338;6.514;2022-08-24T00:50:45;18.90;99.90
52181;DHT22;38158;53.338;6.514;2022-08-24T00:53:22;18.80;99.90
52181;DHT22;38158;53.338;6.514;2022-08-24T00:55:52;18.90;99.90
52181;DHT22;38158;53.338;6.514;2022-08-24T00:58:22;18.80;99.90
52181;DHT22;38158;53.338;6.514;2022-08-24T01:00:56;18.80;99.90
52181;DHT22;38158;53.338;6.514;2022-08-24T01:03:22;18.90;99.90
52181;DHT22;38158;53.338;6.514;2022-08-24T01:05:49;18.90;99.90
52181;DHT22;38158;53.338;6.514;2022-08-24T01:08:15;18.80;99.90
52181;DHT22;38158;53.338;6.514;2022-08-24T01:10:48;18.80;99.90
52181;DHT22;38158;53.338;6.514;2022-08-24T01:13:14;18.80;99.90
52181;DHT22;38158;53.338;6.514;2022-08-24T01:15:45;18.80;99.90
52181;DHT22;38158;53.338;6.514;2022-08-24T01:18:17;18.80;99.90
52181;DHT22;38158;53.338;6.514;2022-08-24T01:26:19;18.70;99.90
52181;DHT22;38158;53.338;6.514;2022-08-24T01:28:48;18.70;99.90
52181;DHT22;38158;53.338;6.514;2022-08-24T01:31:19;18.70;99.90
52181;DHT22;38158;53.338;6.514;2022-08-24T01:33:48;18.60;99.90
52181;DHT22;38158;53.338;6.514;2022-08-24T01:36:22;18.60;99.90
52181;DHT22;38158;53.338;6.514;2022-08-24T01:38:50;18.60;99.90
52181;DHT22;38158;53.338;6.514;2022-08-24T01:41:16;18.50;99.90
52181;DHT22;38158;53.338;6.514;2022-08-24T01:43:41;18.50;99.90
52181;DHT22;38158;53.338;6.514;2022-08-24T01:46:07;18.50;99.90
52181;DHT22;38158;53.338;6.514;2022-08-24T01:48:33;18.50;99.90
52181;DHT22;38158;53.338;6.514;2022-08-24T01:50:59;18.50;99.90
52181;DHT22;38158;53.338;6.514;2022-08-24T01:53:24;18.40;99.90
52181;DHT22;38158;53.338;6.514;2022-08-24T01:55:50;18.40;99.90
52181;DHT22;38158;53.338;6.514;2022-08-24T01:58:16;18.40;99.90
52181;DHT22;38158;53.338;6.514;2022-08-24T02:00:43;18.40;99.90
52181;DHT22;38158;53.338;6.514;2022-08-24T02:03:09;18.40;99.90
52181;DHT22;38158;53.338;6.514;2022-08-24T02:05:35;18.40;99.90
52181;DHT22;38158;53.338;6.514;2022-08-24T02:08:01;18.40;99.90
52181;DHT22;38158;53.338;6.514;2022-08-24T02:10:27;18.40;99.90
52181;DHT22;38158;53.338;6.514;2022-08-24T02:12:53;18.40;99.90
52181;DHT22;38158;53.338;6.514;2022-08-24T02:15:33;18.30;99.90
52181;DHT22;38158;53.338;6.514;2022-08-24T02:18:03;18.30;99.90
52181;DHT22;38158;53.338;6.514;2022-08-24T02:20:29;18.30;99.90
52181;DHT22;38158;53.338;6.514;2022-08-24T02:22:55;18.30;99.90
52181;DHT22;38158;53.338;6.514;2022-08-24T02:25:22;18.30;99.90
52181;DHT22;38158;53.338;6.514;2022-08-24T02:27:49;18.30;99.90
52181;DHT22;38158;53.338;6.514;2022-08-24T02:30:15;18.30;99.90
52181;DHT22;38158;53.338;6.514;2022-08-24T02:32:41;18.30;99.90
52181;DHT22;38158;53.338;6.514;2022-08-24T02:35:07;18.30;99.90
52181;DHT22;38158;53.338;6.514;2022-08-24T02:37:33;18.20;99.90
52181;DHT22;38158;53.338;6.514;2022-08-24T02:39:59;18.20;99.90
52181;DHT22;38158;53.338;6.514;2022-08-24T02:42:26;18.20;99.90
52181;DHT22;38158;53.338;6.514;2022-08-24T02:44:51;18.20;99.90
52181;DHT22;38158;53.338;6.514;2022-08-24T02:47:17;18.20;99.90
52181;DHT22;38158;53.338;6.514;2022-08-24T02:49:43;18.10;99.90
52181;DHT22;38158;53.338;6.514;2022-08-24T02:52:09;18.10;99.90
52181;DHT22;38158;53.338;6.514;2022-08-24T02:54:35;18.10;99.90
52181;DHT22;38158;53.338;6.514;2022-08-24T02:57:00;18.10;99.90
52181;DHT22;38158;53.338;6.514;2022-08-24T02:59:26;18.10;99.90
52181;DHT22;38158;53.338;6.514;2022-08-24T03:01:52;18.10;99.90
52181;DHT22;38158;53.338;6.514;2022-08-24T03:04:18;18.10;99.90
52181;DHT22;38158;53.338;6.514;2022-08-24T03:06:44;18.00;99.90
52181;DHT22;38158;53.338;6.514;2022-08-24T03:09:10;18.10;99.90
52181;DHT22;38158;53.338;6.514;2022-08-24T03:11:36;18.00;99.90
52181;DHT22;38158;53.338;6.514;2022-08-24T03:14:02;18.00;99.90
52181;DHT22;38158;53.338;6.514;2022-08-24T03:16:28;18.00;99.90
52181;DHT22;38158;53.338;6.514;2022-08-24T03:18:54;18.00;99.90
52181;DHT22;38158;53.338;6.514;2022-08-24T03:21:20;18.00;99.90
52181;DHT22;38158;53.338;6.514;2022-08-24T03:23:46;17.90;99.90
52181;DHT22;38158;53.338;6.514;2022-08-24T03:26:12;17.90;99.90
52181;DHT22;38158;53.338;6.514;2022-08-24T03:28:39;17.90;99.90
52181;DHT22;38158;53.338;6.514;2022-08-24T03:31:05;17.90;99.90
52181;DHT22;38158;53.338;6.514;2022-08-24T03:33:30;17.90;99.90
52181;DHT22;38158;53.338;6.514;2022-08-24T03:35:56;17.90;99.90
52181;DHT22;38158;53.338;6.514;2022-08-24T03:38:22;17.90;99.90
52181;DHT22;38158;53.338;6.514;2022-08-24T03:40:48;17.90;99.90
52181;DHT22;38158;53.338;6.514;2022-08-24T03:43:14;17.90;99.90
52181;DHT22;38158;53.338;6.514;2022-08-24T03:46:00;17.80;99.90
52181;DHT22;38158;53.338;6.514;2022-08-24T03:48:28;17.80;99.90
52181;DHT22;38158;53.338;6.514;2022-08-24T03:50:54;17.70;99.90
52181;DHT22;38158;53.338;6.514;2022-08-24T03:53:20;17.70;99.90
52181;DHT22;38158;53.338;6.514;2022-08-24T03:55:46;17.70;99.90
52181;DHT22;38158;53.338;6.514;2022-08-24T03:58:12;17.70;99.90
52181;DHT22;38158;53.338;6.514;2022-08-24T04:00:37;17.70;99.90
52181;DHT22;38158;53.338;6.514;2022-08-24T04:03:10;17.60;99.90
52181;DHT22;38158;53.338;6.514;2022-08-24T04:05:37;17.40;99.90
52181;DHT22;38158;53.338;6.514;2022-08-24T04:08:04;17.30;99.90
52181;DHT22;38158;53.338;6.514;2022-08-24T04:10:30;17.20;99.90
52181;DHT22;38158;53.338;6.514;2022-08-24T04:12:56;17.10;99.90
52181;DHT22;38158;53.338;6.514;2022-08-24T04:15:22;17.10;99.90
52181;DHT22;38158;53.338;6.514;2022-08-24T04:17:49;17.10;99.90
52181;DHT22;38158;53.338;6.514;2022-08-24T04:20:15;17.10;99.90
52181;DHT22;38158;53.338;6.514;2022-08-24T04:22:40;17.10;99.90
52181;DHT22;38158;53.338;6.514;2022-08-24T04:25:07;17.10;99.90
52181;DHT22;38158;53.338;6.514;2022-08-24T04:27:33;17.10;99.90
52181;DHT22;38158;53.338;6.514;2022-08-24T04:29:58;17.20;99.90
52181;DHT22;38158;53.338;6.514;2022-08-24T04:32:24;17.20;99.90
52181;DHT22;38158;53.338;6.514;2022-08-24T04:34:50;17.20;99.90
52181;DHT22;38158;53.338;6.514;2022-08-24T04:37:16;17.20;99.90
52181;DHT22;38158;53.338;6.514;2022-08-24T04:39:42;17.20;99.90
52181;DHT22;38158;53.338;6.514;2022-08-24T04:42:08;17.30;99.90
52181;DHT22;38158;53.338;6.514;2022-08-24T04:44:34;17.30;99.90
52181;DHT22;38158;53.338;6.514;2022-08-24T04:47:00;17.30;99.90
52181;DHT22;38158;53.338;6.514;2022-08-24T04:49:26;17.30;99.90
52181;DHT22;38158;53.338;6.514;2022-08-24T04:51:52;17.40;99.90
52181;DHT22;38158;53.338;6.514;2022-08-24T04:54:18;17.30;99.90
52181;DHT22;38158;53.338;6.514;2022-08-24T04:56:44;17.30;99.90
52181;DHT22;38158;53.338;6.514;2022-08-24T04:59:10;17.30;99.90
52181;DHT22;38158;53.338;6.514;2022-08-24T05:01:35;17.30;99.90
52181;DHT22;38158;53.338;6.514;2022-08-24T05:04:02;17.30;99.90
52181;DHT22;38158;53.338;6.514;2022-08-24T05:06:29;17.30;99.90
52181;DHT22;38158;53.338;6.514;2022-08-24T05:08:56;17.30;99.90
52181;DHT22;38158;53.338;6.514;2022-08-24T05:11:23;17.40;99.90
52181;DHT22;38158;53.338;6.514;2022-08-24T05:13:51;17.40;99.90
52181;DHT22;38158;53.338;6.514;2022-08-24T05:16:16;17.40;99.90
52181;DHT22;38158;53.338;6.514;2022-08-24T05:18:42;17.40;99.90
52181;DHT22;38158;53.338;6.514;2022-08-24T05:21:14;17.50;99.90
52181;DHT22;38158;53.338;6.514;2022-08-24T05:23:40;17.50;99.90
52181;DHT22;38158;53.338;6.514;2022-08-24T05:26:20;17.50;99.90
52181;DHT22;38158;53.338;6.514;2022-08-24T05:28:49;17.60;99.90
52181;DHT22;38158;53.338;6.514;2022-08-24T05:31:18;17.60;99.90
52181;DHT22;38158;53.338;6.514;2022-08-24T05:33:44;17.60;99.90
52181;DHT22;38158;53.338;6.514;2022-08-24T05:36:26;17.60;99.90
52181;DHT22;38158;53.338;6.514;2022-08-24T05:38:54;17.70;99.90
52181;DHT22;38158;53.338;6.514;2022-08-24T05:41:20;17.70;99.90
52181;DHT22;38158;53.338;6.514;2022-08-24T05:43:46;17.80;99.90
52181;DHT22;38158;53.338;6.514;2022-08-24T05:46:13;17.80;99.90
52181;DHT22;38158;53.338;6.514;2022-08-24T05:48:39;17.90;99.90
52181;DHT22;38158;53.338;6.514;2022-08-24T05:51:06;18.00;99.90
52181;DHT22;38158;53.338;6.514;2022-08-24T05:53:32;18.10;99.90
52181;DHT22;38158;53.338;6.514;2022-08-24T05:56:02;18.10;99.90
52181;DHT22;38158;53.338;6.514;2022-08-24T05:58:28;18.20;99.90
52181;DHT22;38158;53.338;6.514;2022-08-24T06:00:54;18.30;99.90
52181;DHT22;38158;53.338;6.514;2022-08-24T06:03:19;18.30;99.90
52181;DHT22;38158;53.338;6.514;2022-08-24T06:05:45;18.40;99.90
52181;DHT22;38158;53.338;6.514;2022-08-24T06:08:12;18.50;99.90
52181;DHT22;38158;53.338;6.514;2022-08-24T06:10:45;18.60;99.90
52181;DHT22;38158;53.338;6.514;2022-08-24T06:13:15;18.60;99.90
52181;DHT22;38158;53.338;6.514;2022-08-24T06:15:41;18.60;99.90
52181;DHT22;38158;53.338;6.514;2022-08-24T06:18:08;18.70;99.90
52181;DHT22;38158;53.338;6.514;2022-08-24T06:20:38;18.80;99.90
52181;DHT22;38158;53.338;6.514;2022-08-24T06:23:04;18.80;99.90
52181;DHT22;38158;53.338;6.514;2022-08-24T06:25:30;18.90;99.90
52181;DHT22;38158;53.338;6.514;2022-08-24T06:28:14;19.00;99.90
52181;DHT22;38158;53.338;6.514;2022-08-24T06:30:40;19.00;99.90
52181;DHT22;38158;53.338;6.514;2022-08-24T06:33:07;19.10;99.90
52181;DHT22;38158;53.338;6.514;2022-08-24T06:35:33;19.20;99.90
52181;DHT22;38158;53.338;6.514;2022-08-24T06:37:59;19.30;99.90
52181;DHT22;38158;53.338;6.514;2022-08-24T06:40:25;19.40;99.90
52181;DHT22;38158;53.338;6.514;2022-08-24T06:42:51;19.50;99.90
52181;DHT22;38158;53.338;6.514;2022-08-24T06:45:18;19.60;99.90
52181;DHT22;38158;53.338;6.514;2022-08-24T06:47:43;19.70;99.90
52181;DHT22;38158;53.338;6.514;2022-08-24T06:50:09;19.80;99.90
52181;DHT22;38158;53.338;6.514;2022-08-24T06:52:35;19.90;99.90
52181;DHT22;38158;53.338;6.514;2022-08-24T06:55:03;20.00;99.90
52181;DHT22;38158;53.338;6.514;2022-08-24T06:57:30;20.10;99.90
52181;DHT22;38158;53.338;6.514;2022-08-24T06:59:56;20.30;99.90
52181;DHT22;38158;53.338;6.514;2022-08-24T07:02:21;20.30;99.90
52181;DHT22;38158;53.338;6.514;2022-08-24T07:04:47;20.40;99.90
52181;DHT22;38158;53.338;6.514;2022-08-24T07:07:14;20.50;99.90
52181;DHT22;38158;53.338;6.514;2022-08-24T07:09:40;20.60;99.90
52181;DHT22;38158;53.338;6.514;2022-08-24T07:12:06;20.60;99.90
52181;DHT22;38158;53.338;6.514;2022-08-24T07:14:32;20.70;99.90
52181;DHT22;38158;53.338;6.514;2022-08-24T07:16:57;20.80;99.90
52181;DHT22;38158;53.338;6.514;2022-08-24T07:19:23;20.90;99.90
52181;DHT22;38158;53.338;6.514;2022-08-24T07:21:49;21.00;99.90
52181;DHT22;38158;53.338;6.514;2022-08-24T07:24:16;21.10;99.90
52181;DHT22;38158;53.338;6.514;2022-08-24T07:26:42;21.20;99.90
52181;DHT22;38158;53.338;6.514;2022-08-24T07:29:12;21.20;99.90
52181;DHT22;38158;53.338;6.514;2022-08-24T07:31:40;21.40;99.90
52181;DHT22;38158;53.338;6.514;2022-08-24T07:34:08;21.50;99.90
52181;DHT22;38158;53.338;6.514;2022-08-24T07:36:35;21.70;99.90
52181;DHT22;38158;53.338;6.514;2022-08-24T07:39:03;21.80;99.90
52181;DHT22;38158;53.338;6.514;2022-08-24T07:41:29;21.90;99.90
52181;DHT22;38158;53.338;6.514;2022-08-24T07:43:56;22.00;99.90
52181;DHT22;38158;53.338;6.514;2022-08-24T07:46:22;22.00;99.90
52181;DHT22;38158;53.338;6.514;2022-08-24T07:48:48;22.10;99.90
52181;DHT22;38158;53.338;6.514;2022-08-24T07:51:16;22.20;99.90
52181;DHT22;38158;53.338;6.514;2022-08-24T07:53:42;22.30;99.90
52181;DHT22;38158;53.338;6.514;2022-08-24T07:56:08;22.40;99.90
52181;DHT22;38158;53.338;6.514;2022-08-24T07:58:34;22.50;99.90
52181;DHT22;38158;53.338;6.514;2022-08-24T08:01:01;22.60;99.90
52181;DHT22;38158;53.338;6.514;2022-08-24T08:03:28;22.70;99.90
52181;DHT22;38158;53.338;6.514;2022-08-24T08:05:57;22.80;99.90
52181;DHT22;38158;53.338;6.514;2022-08-24T08:08:24;22.90;99.90
52181;DHT22;38158;53.338;6.514;2022-08-24T08:10:49;22.90;99.90
52181;DHT22;38158;53.338;6.514;2022-08-24T08:13:15;23.00;99.90
52181;DHT22;38158;53.338;6.514;2022-08-24T08:15:41;23.10;99.90
52181;DHT22;38158;53.338;6.514;2022-08-24T08:18:07;23.30;99.90
52181;DHT22;38158;53.338;6.514;2022-08-24T08:20:33;23.30;99.90
52181;DHT22;38158;53.338;6.514;2022-08-24T08:22:59;23.40;99.90
52181;DHT22;38158;53.338;6.514;2022-08-24T08:25:47;23.50;99.90
52181;DHT22;38158;53.338;6.514;2022-08-24T08:28:13;23.60;99.90
52181;DHT22;38158;53.338;6.514;2022-08-24T08:30:40;23.60;99.90
52181;DHT22;38158;53.338;6.514;2022-08-24T08:33:06;23.70;99.90
52181;DHT22;38158;53.338;6.514;2022-08-24T08:35:32;23.80;99.90
52181;DHT22;38158;53.338;6.514;2022-08-24T08:37:59;23.90;99.90
52181;DHT22;38158;53.338;6.514;2022-08-24T08:40:51;23.90;99.90
52181;DHT22;38158;53.338;6.514;2022-08-24T08:46:12;24.10;99.90
52181;DHT22;38158;53.338;6.514;2022-08-24T08:52:06;24.20;99.90
52181;DHT22;38158;53.338;6.514;2022-08-24T09:12:06;24.80;99.90
52181;DHT22;38158;53.338;6.514;2022-08-24T09:17:17;25.10;99.90
52181;DHT22;38158;53.338;6.514;2022-08-24T09:22:45;25.40;99.90
52181;DHT22;38158;53.338;6.514;2022-08-24T09:30:30;25.60;99.90
52181;DHT22;38158;53.338;6.514;2022-08-24T09:47:21;26.10;97.80
52181;DHT22;38158;53.338;6.514;2022-08-24T10:08:34;26.50;94.60
52181;DHT22;38158;53.338;6.514;2022-08-24T10:16:30;26.80;95.00
52181;DHT22;38158;53.338;6.514;2022-08-24T10:24:14;27.00;94.40
52181;DHT22;38158;53.338;6.514;2022-08-24T10:29:36;27.10;93.90
52181;DHT22;38158;53.338;6.514;2022-08-24T10:35:03;27.40;92.20
52181;DHT22;38158;53.338;6.514;2022-08-24T10:49:33;27.40;91.00
52181;DHT22;38158;53.338;6.514;2022-08-24T10:52:40;27.40;91.70
52181;DHT22;38158;53.338;6.514;2022-08-24T10:57:45;27.80;92.10
52181;DHT22;38158;53.338;6.514;2022-08-24T11:00:15;27.90;91.30
52181;DHT22;38158;53.338;6.514;2022-08-24T11:02:44;27.90;91.40
52181;DHT22;38158;53.338;6.514;2022-08-24T11:05:14;27.90;90.60
52181;DHT22;38158;53.338;6.514;2022-08-24T11:07:59;28.00;90.70
52181;DHT22;38158;53.338;6.514;2022-08-24T11:10:32;28.10;87.60
52181;DHT22;38158;53.338;6.514;2022-08-24T11:13:21;28.10;90.50
52181;DHT22;38158;53.338;6.514;2022-08-24T11:15:50;28.20;86.00
52181;DHT22;38158;53.338;6.514;2022-08-24T11:18:17;28.30;87.60
52181;DHT22;38158;53.338;6.514;2022-08-24T11:20:44;28.30;87.50
52181;DHT22;38158;53.338;6.514;2022-08-24T11:26:02;28.20;85.60
52181;DHT22;38158;53.338;6.514;2022-08-24T11:28:36;28.30;88.40
52181;DHT22;38158;53.338;6.514;2022-08-24T11:31:03;28.60;85.60
52181;DHT22;38158;53.338;6.514;2022-08-24T11:33:33;28.80;84.70
52181;DHT22;38158;53.338;6.514;2022-08-24T11:36:00;28.90;82.10
52181;DHT22;38158;53.338;6.514;2022-08-24T11:38:30;29.00;82.90
52181;DHT22;38158;53.338;6.514;2022-08-24T11:41:21;29.10;81.20
52181;DHT22;38158;53.338;6.514;2022-08-24T11:46:36;28.80;89.30
52181;DHT22;38158;53.338;6.514;2022-08-24T11:49:25;28.50;90.70
52181;DHT22;38158;53.338;6.514;2022-08-24T11:52:21;28.20;91.50
52181;DHT22;38158;53.338;6.514;2022-08-24T11:55:00;27.90;93.20
52181;DHT22;38158;53.338;6.514;2022-08-24T12:00:11;27.40;94.50
52181;DHT22;38158;53.338;6.514;2022-08-24T12:08:05;27.00;96.10
52181;DHT22;38158;53.338;6.514;2022-08-24T12:20:57;27.30;95.30
52181;DHT22;38158;53.338;6.514;2022-08-24T12:23:37;27.30;95.20
52181;DHT22;38158;53.338;6.514;2022-08-24T12:28:55;27.60;94.00
52181;DHT22;38158;53.338;6.514;2022-08-24T12:31:43;27.70;92.40
52181;DHT22;38158;53.338;6.514;2022-08-24T12:34:31;27.80;92.00
52181;DHT22;38158;53.338;6.514;2022-08-24T12:37:11;27.80;92.20
52181;DHT22;38158;53.338;6.514;2022-08-24T12:39:54;27.80;92.20
52181;DHT22;38158;53.338;6.514;2022-08-24T12:42:36;27.80;93.10
52181;DHT22;38158;53.338;6.514;2022-08-24T12:45:11;27.90;92.40
52181;DHT22;38158;53.338;6.514;2022-08-24T12:56:36;28.60;90.00
52181;DHT22;38158;53.338;6.514;2022-08-24T13:07:39;28.90;88.90
52181;DHT22;38158;53.338;6.514;2022-08-24T13:10:13;29.00;88.30
52181;DHT22;38158;53.338;6.514;2022-08-24T13:17:52;28.80;86.70
52181;DHT22;38158;53.338;6.514;2022-08-24T13:45:54;29.10;87.20
52181;DHT22;38158;53.338;6.514;2022-08-24T13:50:58;28.80;89.40
52181;DHT22;38158;53.338;6.514;2022-08-24T13:56:29;28.50;90.90
52181;DHT22;38158;53.338;6.514;2022-08-24T13:59:33;28.30;91.20
52181;DHT22;38158;53.338;6.514;2022-08-24T14:02:18;28.20;91.60
52181;DHT22;38158;53.338;6.514;2022-08-24T14:05:16;28.20;91.80
52181;DHT22;38158;53.338;6.514;2022-08-24T14:07:53;28.10;91.90
52181;DHT22;38158;53.338;6.514;2022-08-24T14:22:14;28.30;91.60
52181;DHT22;38158;53.338;6.514;2022-08-24T14:24:52;28.30;91.50
52181;DHT22;38158;53.338;6.514;2022-08-24T14:38:15;28.20;92.00
52181;DHT22;38158;53.338;6.514;2022-08-24T14:41:05;28.20;92.40
52181;DHT22;38158;53.338;6.514;2022-08-24T14:46:35;28.30;92.60
52181;DHT22;38158;53.338;6.514;2022-08-24T14:55:15;28.40;91.40
52181;DHT22;38158;53.338;6.514;2022-08-24T15:08:07;28.60;90.70
52181;DHT22;38158;53.338;6.514;2022-08-24T15:10:51;28.70;90.00
52181;DHT22;38158;53.338;6.514;2022-08-24T15:13:29;28.70;88.90
52181;DHT22;38158;53.338;6.514;2022-08-24T15:18:48;28.60;89.80
52181;DHT22;38158;53.338;6.514;2022-08-24T15:26:57;28.40;91.30
52181;DHT22;38158;53.338;6.514;2022-08-24T15:29:31;28.40;91.80
52181;DHT22;38158;53.338;6.514;2022-08-24T15:32:10;28.40;91.00
52181;DHT22;38158;53.338;6.514;2022-08-24T15:34:43;28.40;91.50
52181;DHT22;38158;53.338;6.514;2022-08-24T15:37:12;28.30;92.40
52181;DHT22;38158;53.338;6.514;2022-08-24T15:39:38;28.40;92.00
52181;DHT22;38158;53.338;6.514;2022-08-24T15:42:12;28.30;91.90
52181;DHT22;38158;53.338;6.514;2022-08-24T15:44:40;28.30;92.30
52181;DHT22;38158;53.338;6.514;2022-08-24T15:47:37;28.30;92.10
52181;DHT22;38158;53.338;6.514;2022-08-24T15:50:40;28.30;91.80
52181;DHT22;38158;53.338;6.514;2022-08-24T15:53:04;28.30;92.00
52181;DHT22;38158;53.338;6.514;2022-08-24T15:55:45;28.20;91.80
52181;DHT22;38158;53.338;6.514;2022-08-24T15:58:33;28.20;92.00
52181;DHT22;38158;53.338;6.514;2022-08-24T16:06:45;28.00;92.20
52181;DHT22;38158;53.338;6.514;2022-08-24T16:09:35;28.00;92.40
52181;DHT22;38158;53.338;6.514;2022-08-24T16:12:07;27.90;92.60
52181;DHT22;38158;53.338;6.514;2022-08-24T16:14:46;27.90;92.40
52181;DHT22;38158;53.338;6.514;2022-08-24T16:19:53;27.80;91.80
52181;DHT22;38158;53.338;6.514;2022-08-24T16:22:50;27.80;92.00
52181;DHT22;38158;53.338;6.514;2022-08-24T16:28:09;27.60;92.70
52181;DHT22;38158;53.338;6.514;2022-08-24T16:30:43;27.60;93.30
52181;DHT22;38158;53.338;6.514;2022-08-24T16:33:10;27.60;93.80
52181;DHT22;38158;53.338;6.514;2022-08-24T16:36:00;27.70;93.70
52181;DHT22;38158;53.338;6.514;2022-08-24T16:38:27;27.80;93.60
52181;DHT22;38158;53.338;6.514;2022-08-24T16:40:56;27.90;93.20
52181;DHT22;38158;53.338;6.514;2022-08-24T16:43:22;27.80;93.20
52181;DHT22;38158;53.338;6.514;2022-08-24T16:45:48;27.70;93.50
52181;DHT22;38158;53.338;6.514;2022-08-24T16:48:14;27.50;93.90
52181;DHT22;38158;53.338;6.514;2022-08-24T16:50:40;27.30;94.60
52181;DHT22;38158;53.338;6.514;2022-08-24T16:53:06;27.10;95.30
52181;DHT22;38158;53.338;6.514;2022-08-24T16:55:32;27.10;95.20
52181;DHT22;38158;53.338;6.514;2022-08-24T16:57:57;27.10;95.00
52181;DHT22;38158;53.338;6.514;2022-08-24T17:00:26;27.10;94.90
52181;DHT22;38158;53.338;6.514;2022-08-24T17:02:52;27.20;94.60
52181;DHT22;38158;53.338;6.514;2022-08-24T17:05:19;27.20;94.40
52181;DHT22;38158;53.338;6.514;2022-08-24T17:07:45;27.10;94.50
52181;DHT22;38158;53.338;6.514;2022-08-24T17:10:13;26.90;95.20
52181;DHT22;38158;53.338;6.514;2022-08-24T17:12:39;26.70;95.90
52181;DHT22;38158;53.338;6.514;2022-08-24T17:15:06;26.40;96.50
52181;DHT22;38158;53.338;6.514;2022-08-24T17:17:33;26.30;96.90
52181;DHT22;38158;53.338;6.514;2022-08-24T17:19:59;26.20;97.20
52181;DHT22;38158;53.338;6.514;2022-08-24T17:22:25;26.10;97.30
52181;DHT22;38158;53.338;6.514;2022-08-24T17:24:51;26.10;97.50
52181;DHT22;38158;53.338;6.514;2022-08-24T17:27:18;26.10;97.50
52181;DHT22;38158;53.338;6.514;2022-08-24T17:29:45;26.00;97.40
52181;DHT22;38158;53.338;6.514;2022-08-24T17:32:11;25.90;98.20
52181;DHT22;38158;53.338;6.514;2022-08-24T17:34:38;25.90;98.80
52181;DHT22;38158;53.338;6.514;2022-08-24T17:37:03;25.80;99.00
52181;DHT22;38158;53.338;6.514;2022-08-24T17:39:29;25.60;99.30
52181;DHT22;38158;53.338;6.514;2022-08-24T17:41:57;25.50;99.80
52181;DHT22;38158;53.338;6.514;2022-08-24T17:44:29;25.40;99.90
52181;DHT22;38158;53.338;6.514;2022-08-24T17:46:58;25.30;99.90
52181;DHT22;38158;53.338;6.514;2022-08-24T17:49:24;25.20;99.90
52181;DHT22;38158;53.338;6.514;2022-08-24T17:51:50;25.20;99.90
52181;DHT22;38158;53.338;6.514;2022-08-24T17:54:16;25.10;99.90
52181;DHT22;38158;53.338;6.514;2022-08-24T17:56:43;25.00;99.90
52181;DHT22;38158;53.338;6.514;2022-08-24T17:59:12;24.90;99.90
52181;DHT22;38158;53.338;6.514;2022-08-24T18:01:44;24.80;99.90
52181;DHT22;38158;53.338;6.514;2022-08-24T18:04:10;24.80;99.90
52181;DHT22;38158;53.338;6.514;2022-08-24T18:06:36;24.80;99.90
52181;DHT22;38158;53.338;6.514;2022-08-24T18:09:05;24.70;99.90
52181;DHT22;38158;53.338;6.514;2022-08-24T18:11:31;24.60;99.90
52181;DHT22;38158;53.338;6.514;2022-08-24T18:13:57;24.50;99.90
52181;DHT22;38158;53.338;6.514;2022-08-24T18:16:26;24.40;99.90
52181;DHT22;38158;53.338;6.514;2022-08-24T18:18:54;24.40;99.90
52181;DHT22;38158;53.338;6.514;2022-08-24T18:21:21;24.20;99.90
52181;DHT22;38158;53.338;6.514;2022-08-24T18:23:48;24.10;99.90
52181;DHT22;38158;53.338;6.514;2022-08-24T18:26:20;24.00;99.90
52181;DHT22;38158;53.338;6.514;2022-08-24T18:28:46;23.90;99.90
52181;DHT22;38158;53.338;6.514;2022-08-24T18:31:13;23.80;99.90
52181;DHT22;38158;53.338;6.514;2022-08-24T18:33:39;23.70;99.90
52181;DHT22;38158;53.338;6.514;2022-08-24T18:36:05;23.60;99.90
52181;DHT22;38158;53.338;6.514;2022-08-24T18:38:30;23.50;99.90
52181;DHT22;38158;53.338;6.514;2022-08-24T18:40:59;23.50;99.90
52181;DHT22;38158;53.338;6.514;2022-08-24T18:43:25;23.40;99.90
52181;DHT22;38158;53.338;6.514;2022-08-24T18:45:51;23.40;99.90
52181;DHT22;38158;53.338;6.514;2022-08-24T18:48:17;23.30;99.90
52181;DHT22;38158;53.338;6.514;2022-08-24T18:50:43;23.30;99.90
52181;DHT22;38158;53.338;6.514;2022-08-24T18:53:09;23.20;99.90
52181;DHT22;38158;53.338;6.514;2022-08-24T18:55:37;23.20;99.90
52181;DHT22;38158;53.338;6.514;2022-08-24T18:58:03;23.20;99.90
52181;DHT22;38158;53.338;6.514;2022-08-24T19:00:30;23.20;99.90
52181;DHT22;38158;53.338;6.514;2022-08-24T19:03:01;23.10;99.90
52181;DHT22;38158;53.338;6.514;2022-08-24T19:05:27;23.10;99.90
52181;DHT22;38158;53.338;6.514;2022-08-24T19:07:53;23.00;99.90
52181;DHT22;38158;53.338;6.514;2022-08-24T19:10:26;23.00;99.90
52181;DHT22;38158;53.338;6.514;2022-08-24T19:12:57;23.00;99.90
52181;DHT22;38158;53.338;6.514;2022-08-24T19:15:24;22.90;99.90
52181;DHT22;38158;53.338;6.514;2022-08-24T19:17:50;22.90;99.90
52181;DHT22;38158;53.338;6.514;2022-08-24T19:20:16;22.80;99.90
52181;DHT22;38158;53.338;6.514;2022-08-24T19:22:42;22.80;99.90
52181;DHT22;38158;53.338;6.514;2022-08-24T19:25:21;22.90;99.90
52181;DHT22;38158;53.338;6.514;2022-08-24T19:27:47;22.80;99.90
52181;DHT22;38158;53.338;6.514;2022-08-24T19:30:13;22.80;99.90
52181;DHT22;38158;53.338;6.514;2022-08-24T19:32:40;22.80;99.90
52181;DHT22;38158;53.338;6.514;2022-08-24T19:35:08;22.70;99.90
52181;DHT22;38158;53.338;6.514;2022-08-24T19:37:34;22.70;99.90
52181;DHT22;38158;53.338;6.514;2022-08-24T19:39:59;22.70;99.90
52181;DHT22;38158;53.338;6.514;2022-08-24T19:42:26;22.70;99.90
52181;DHT22;38158;53.338;6.514;2022-08-24T19:44:51;22.60;99.90
52181;DHT22;38158;53.338;6.514;2022-08-24T19:47:36;22.60;99.90
52181;DHT22;38158;53.338;6.514;2022-08-24T19:50:04;22.60;99.90